createdAt,value
2024-05-09T00:01:19.302Z,56.76
2024-05-09T00:03:50.872Z,57.06
2024-05-09T00:06:23.392Z,57.39
2024-05-09T00:08:54.831Z,57.77
2024-05-09T00:11:25.126Z,58.00
2024-05-09T00:13:57.043Z,58.14
2024-05-09T00:16:27.448Z,58.23
2024-05-09T00:18:59.535Z,58.25
2024-05-09T00:21:29.812Z,58.26
2024-05-09T00:24:01.390Z,58.18
2024-05-09T00:26:31.726Z,58.06
2024-05-09T00:29:03.396Z,58.05
2024-05-09T00:31:33.606Z,58.24
2024-05-09T00:34:05.449Z,58.35
2024-05-09T00:36:36.230Z,58.48
2024-05-09T00:39:07.944Z,58.47
2024-05-09T00:41:38.128Z,58.51
2024-05-09T00:44:09.824Z,58.47
2024-05-09T00:46:40.142Z,58.65
2024-05-09T00:49:11.961Z,58.72
2024-05-09T00:51:42.225Z,58.86
2024-05-09T00:54:14.606Z,58.89
2024-05-09T00:56:44.814Z,58.93
2024-05-09T00:59:16.630Z,59.01
2024-05-09T01:01:46.931Z,59.12
2024-05-09T01:04:18.865Z,59.20
2024-05-09T01:06:49.188Z,59.49
2024-05-09T01:09:20.715Z,59.76
2024-05-09T01:11:51.475Z,59.90
2024-05-09T01:14:23.467Z,60.17
2024-05-09T01:16:53.873Z,60.23
2024-05-09T01:19:28.931Z,60.37
2024-05-09T01:22:00.548Z,60.56
2024-05-09T01:24:30.912Z,60.58
2024-05-09T01:27:02.437Z,60.76
2024-05-09T01:29:32.990Z,61.04
2024-05-09T01:32:05.116Z,61.28
2024-05-09T01:34:35.658Z,61.40
2024-05-09T01:37:07.107Z,61.39
2024-05-09T01:39:37.574Z,61.39
2024-05-09T01:42:09.191Z,61.38
2024-05-09T01:44:40.019Z,61.32
2024-05-09T01:47:11.502Z,61.25
2024-05-09T01:49:42.178Z,61.32
2024-05-09T01:52:14.176Z,61.48
2024-05-09T01:54:45.096Z,62.01
2024-05-09T01:57:16.662Z,62.41
2024-05-09T01:59:47.084Z,62.61
2024-05-09T02:02:18.836Z,62.77
2024-05-09T02:04:50.229Z,62.92
2024-05-09T02:07:22.307Z,62.92
2024-05-09T02:09:53.332Z,62.68
2024-05-09T02:12:24.942Z,62.56
2024-05-09T02:14:55.556Z,62.50
2024-05-09T02:17:27.257Z,62.54
2024-05-09T02:19:57.905Z,62.52
2024-05-09T02:22:29.298Z,62.51
2024-05-09T02:24:59.749Z,62.55
2024-05-09T02:27:31.523Z,62.54
2024-05-09T02:30:01.931Z,62.61
2024-05-09T02:32:33.721Z,62.68
2024-05-09T02:35:04.407Z,62.71
2024-05-09T02:37:36.080Z,62.80
2024-05-09T02:40:09.144Z,62.94
2024-05-09T02:42:43.251Z,63.02
2024-05-09T02:45:13.916Z,63.12
2024-05-09T02:47:45.499Z,63.29
2024-05-09T02:50:23.043Z,63.36
2024-05-09T02:53:02.159Z,63.48
2024-05-09T02:55:33.256Z,63.50
2024-05-09T02:58:05.211Z,63.59
2024-05-09T03:00:39.741Z,63.67
2024-05-09T03:03:15.753Z,63.76
2024-05-09T03:05:49.804Z,63.81
2024-05-09T03:08:20.190Z,63.85
2024-05-09T03:10:51.980Z,63.95
2024-05-09T03:13:22.078Z,63.98
2024-05-09T03:15:53.781Z,64.07
2024-05-09T03:18:24.056Z,64.04
2024-05-09T03:20:55.956Z,64.14
2024-05-09T03:23:26.193Z,64.17
2024-05-09T03:25:57.879Z,64.30
2024-05-09T03:28:28.206Z,64.38
2024-05-09T03:30:59.796Z,64.45
2024-05-09T03:33:30.707Z,64.55
2024-05-09T03:36:02.935Z,64.63
2024-05-09T03:38:41.938Z,64.63
2024-05-09T03:41:13.955Z,64.61
2024-05-09T03:43:44.412Z,64.72
2024-05-09T03:46:16.179Z,64.79
2024-05-09T03:48:46.580Z,64.75
2024-05-09T03:51:19.036Z,64.63
2024-05-09T03:53:49.396Z,64.75
2024-05-09T03:56:21.146Z,64.81
2024-05-09T03:58:51.619Z,64.70
2024-05-09T04:01:25.498Z,64.69
2024-05-09T04:03:56.310Z,64.67
2024-05-09T04:06:28.195Z,64.63
2024-05-09T04:08:58.905Z,64.49
2024-05-09T04:11:30.592Z,64.01
2024-05-09T04:14:00.970Z,63.78
2024-05-09T04:16:32.870Z,63.80
2024-05-09T04:19:03.536Z,63.83
2024-05-09T04:21:35.348Z,63.61
2024-05-09T04:24:05.887Z,63.54
2024-05-09T04:26:37.401Z,63.40
2024-05-09T04:29:08.072Z,63.14
2024-05-09T04:31:39.928Z,63.00
2024-05-09T04:34:10.448Z,62.42
2024-05-09T04:36:44.554Z,61.98
2024-05-09T04:39:14.990Z,61.63
2024-05-09T04:41:46.357Z,61.64
2024-05-09T04:44:16.733Z,61.24
2024-05-09T04:46:48.429Z,61.12
2024-05-09T04:49:19.005Z,61.17
2024-05-09T04:51:50.526Z,60.76
2024-05-09T04:54:29.896Z,60.48
2024-05-09T04:57:09.483Z,60.34
2024-05-09T04:59:39.933Z,60.39
2024-05-09T05:02:11.757Z,60.45
2024-05-09T05:04:42.569Z,59.99
2024-05-09T05:07:14.804Z,60.02
2024-05-09T05:09:45.222Z,59.88
2024-05-09T05:12:36.378Z,59.11
2024-05-09T05:15:08.066Z,58.68
2024-05-09T05:17:38.708Z,57.97
2024-05-09T05:20:15.071Z,57.84
2024-05-09T05:22:48.049Z,57.56
2024-05-09T05:25:18.694Z,56.78
2024-05-09T05:27:50.458Z,56.02
2024-05-09T05:30:25.277Z,55.44
2024-05-09T05:33:01.071Z,54.56
2024-05-09T05:35:31.874Z,54.85
2024-05-09T05:38:03.789Z,54.84
2024-05-09T05:40:37.197Z,54.59
2024-05-09T05:43:15.834Z,54.67
2024-05-09T05:45:48.334Z,53.95
2024-05-09T05:48:19.287Z,53.73
2024-05-09T05:50:51.129Z,53.65
2024-05-09T05:53:22.085Z,53.42
2024-05-09T05:55:53.757Z,52.62
2024-05-09T05:58:24.348Z,52.21
2024-05-09T06:00:56.054Z,52.00
2024-05-09T06:03:26.827Z,51.90
2024-05-09T06:06:02.127Z,51.27
2024-05-09T06:08:35.075Z,50.66
2024-05-09T06:11:05.627Z,50.36
2024-05-09T06:13:37.462Z,50.30
2024-05-09T06:16:07.781Z,49.58
2024-05-09T06:18:40.677Z,48.25
2024-05-09T06:21:11.061Z,47.51
2024-05-09T06:23:49.016Z,47.57
2024-05-09T06:26:21.127Z,46.74
2024-05-09T06:28:51.660Z,46.88
2024-05-09T06:31:24.257Z,46.55
2024-05-09T06:33:55.231Z,46.47
2024-05-09T06:36:27.262Z,45.98
2024-05-09T06:38:57.716Z,44.63
2024-05-09T06:41:30.065Z,43.30
2024-05-09T06:44:01.653Z,43.18
2024-05-09T06:46:33.682Z,42.65
2024-05-09T06:49:08.533Z,41.50
2024-05-09T06:51:43.198Z,40.42
2024-05-09T06:54:15.908Z,40.35
2024-05-09T06:56:46.458Z,39.82
2024-05-09T06:59:18.228Z,38.94
2024-05-09T07:01:48.683Z,38.60
2024-05-09T07:04:20.273Z,38.34
2024-05-09T07:06:51.243Z,38.76
2024-05-09T07:09:23.293Z,37.19
2024-05-09T07:11:53.964Z,36.20
2024-05-09T07:14:25.754Z,35.69
2024-05-09T07:16:56.984Z,35.36
2024-05-09T07:19:28.802Z,35.12
2024-05-09T07:22:00.244Z,34.77
2024-05-09T07:24:32.090Z,33.98
2024-05-09T07:27:05.425Z,33.58
2024-05-09T07:29:38.516Z,33.34
2024-05-09T07:32:09.449Z,33.18
2024-05-09T07:34:41.412Z,31.92
2024-05-09T07:37:13.016Z,30.73
2024-05-09T07:39:44.588Z,30.24
2024-05-09T07:42:14.846Z,30.32
2024-05-09T07:44:46.473Z,30.26
2024-05-09T07:48:28.949Z,29.36
2024-05-09T07:53:34.366Z,27.76
2024-05-09T07:55:36.010Z,27.35
2024-05-09T07:58:06.670Z,27.34
2024-05-09T08:00:38.378Z,27.54
2024-05-09T08:03:10.260Z,26.66
2024-05-09T08:05:41.902Z,25.70
2024-05-09T08:08:12.524Z,26.22
2024-05-09T08:10:44.040Z,26.17
2024-05-09T08:13:14.606Z,24.96
2024-05-09T08:15:46.206Z,24.47
2024-05-09T08:18:17.041Z,23.56
2024-05-09T08:20:49.138Z,24.11
2024-05-09T08:23:19.605Z,24.18
2024-05-09T08:25:51.136Z,23.52
2024-05-09T08:28:21.641Z,23.59
2024-05-09T08:30:53.640Z,23.17
2024-05-09T08:33:24.145Z,21.67
2024-05-09T08:35:58.797Z,22.03
2024-05-09T08:38:29.057Z,21.08
2024-05-09T08:41:01.602Z,20.66
2024-05-09T08:43:32.156Z,19.65
2024-05-09T08:46:04.126Z,19.93
2024-05-09T08:48:36.170Z,19.62
2024-05-09T08:51:08.074Z,19.34
2024-05-09T08:53:38.534Z,18.91
2024-05-09T08:56:10.184Z,18.63
2024-05-09T08:58:40.529Z,18.02
2024-05-09T09:01:12.252Z,17.05
2024-05-09T09:03:43.145Z,16.69
2024-05-09T09:06:15.456Z,17.21
2024-05-09T09:08:45.806Z,16.97
2024-05-09T09:11:17.783Z,16.40
2024-05-09T09:13:48.218Z,16.27
2024-05-09T09:16:20.097Z,16.32
2024-05-09T09:18:51.372Z,15.51
2024-05-09T09:21:23.016Z,16.03
2024-05-09T09:23:53.589Z,16.07
2024-05-09T09:26:25.647Z,15.78
2024-05-09T09:28:59.756Z,14.95
2024-05-09T09:31:31.872Z,15.31
2024-05-09T09:34:06.141Z,14.96
2024-05-09T09:36:38.911Z,14.38
2024-05-09T09:39:09.878Z,13.67
2024-05-09T09:41:41.837Z,13.24
2024-05-09T09:44:12.020Z,13.53
2024-05-09T09:46:44.319Z,13.71
2024-05-09T09:49:14.958Z,14.74
2024-05-09T09:51:46.971Z,14.49
2024-05-09T09:54:18.271Z,13.75
2024-05-09T09:56:50.318Z,13.27
2024-05-09T09:59:20.666Z,12.68
2024-05-09T10:01:52.497Z,13.16
2024-05-09T10:04:23.359Z,13.40
2024-05-09T10:06:58.567Z,13.43
2024-05-09T10:09:31.528Z,12.97
2024-05-09T10:12:11.826Z,12.71
2024-05-09T10:14:46.467Z,12.45
2024-05-09T10:17:19.207Z,12.66
2024-05-09T10:19:49.939Z,12.04
2024-05-09T10:22:28.684Z,11.93
2024-05-09T10:25:10.437Z,12.12
2024-05-09T10:27:42.211Z,11.84
2024-05-09T10:30:26.005Z,12.00
2024-05-09T10:33:02.425Z,11.59
2024-05-09T10:35:33.057Z,11.78
2024-05-09T10:38:07.712Z,12.15
2024-05-09T10:40:40.533Z,11.52
2024-05-09T10:43:16.345Z,10.98
2024-05-09T10:45:49.304Z,10.65
2024-05-09T10:48:19.826Z,9.98
2024-05-09T10:50:51.705Z,9.74
2024-05-09T10:53:23.370Z,9.68
2024-05-09T10:56:01.331Z,9.36
2024-05-09T10:58:33.024Z,9.29
2024-05-09T11:01:06.779Z,9.50
2024-05-09T11:03:39.900Z,9.01
2024-05-09T11:06:11.464Z,8.88
2024-05-09T11:08:44.157Z,9.42
2024-05-09T11:11:14.587Z,9.83
2024-05-09T11:13:46.454Z,10.04
2024-05-09T11:16:19.761Z,10.27
2024-05-09T11:18:56.155Z,10.32
2024-05-09T11:21:28.322Z,10.79
2024-05-09T11:23:59.006Z,11.37
2024-05-09T11:26:33.832Z,11.30
2024-05-09T11:29:06.635Z,10.61
2024-05-09T11:31:46.879Z,10.12
2024-05-09T11:34:19.327Z,9.49
2024-05-09T11:36:50.013Z,9.30
2024-05-09T11:39:21.955Z,9.61
2024-05-09T11:41:52.916Z,9.98
2024-05-09T11:44:24.750Z,10.32
2024-05-09T11:46:55.674Z,10.55
2024-05-09T11:49:27.710Z,11.02
2024-05-09T11:51:58.138Z,11.10
2024-05-09T11:54:29.847Z,11.88
2024-05-09T11:57:00.387Z,11.55
2024-05-09T11:59:32.736Z,11.94
2024-05-09T12:02:03.547Z,12.70
2024-05-09T12:04:35.606Z,12.33
2024-05-09T12:07:07.302Z,12.33
2024-05-09T12:09:40.265Z,11.88
2024-05-09T12:12:10.803Z,10.91
2024-05-09T12:14:43.048Z,10.00
2024-05-09T12:17:13.661Z,9.31
2024-05-09T12:19:45.849Z,9.49
2024-05-09T12:22:16.589Z,8.83
2024-05-09T12:24:48.365Z,8.41
2024-05-09T12:27:18.790Z,8.61
2024-05-09T12:29:50.858Z,8.59
2024-05-09T12:32:21.395Z,8.35
2024-05-09T12:34:53.354Z,8.43
2024-05-09T12:37:24.188Z,8.42
2024-05-09T12:39:55.852Z,9.52
2024-05-09T12:42:28.094Z,9.70
2024-05-09T12:45:00.622Z,10.39
2024-05-09T12:47:31.290Z,10.87
2024-05-09T12:50:03.817Z,11.52
2024-05-09T12:52:34.311Z,12.52
2024-05-09T12:55:06.318Z,13.70
2024-05-09T12:57:36.827Z,14.47
2024-05-09T13:00:14.222Z,14.90
2024-05-09T13:02:53.610Z,15.37
2024-05-09T13:05:24.531Z,15.40
2024-05-09T13:07:56.803Z,16.01
2024-05-09T13:10:32.171Z,16.19
2024-05-09T13:13:05.240Z,16.77
2024-05-09T13:15:36.936Z,16.91
2024-05-09T13:18:08.704Z,16.29
2024-05-09T13:20:39.306Z,16.04
2024-05-09T13:23:10.879Z,15.17
2024-05-09T13:25:41.705Z,14.85
2024-05-09T13:28:13.248Z,13.32
2024-05-09T13:30:43.963Z,12.41
2024-05-09T13:33:15.918Z,12.30
2024-05-09T13:35:50.155Z,12.63
2024-05-09T13:38:22.582Z,12.64
2024-05-09T13:40:53.340Z,12.80
2024-05-09T13:43:25.556Z,12.27
2024-05-09T13:45:57.647Z,11.46
2024-05-09T13:48:29.387Z,11.66
2024-05-09T13:51:00.000Z,11.92
2024-05-09T13:53:31.850Z,11.63
2024-05-09T13:56:02.384Z,11.32
2024-05-09T13:58:34.351Z,11.35
2024-05-09T14:01:05.015Z,11.68
2024-05-09T14:03:37.329Z,12.35
2024-05-09T14:06:11.261Z,12.53
2024-05-09T14:08:44.666Z,13.54
2024-05-09T14:11:15.673Z,14.43
2024-05-09T14:13:47.668Z,15.05
2024-05-09T14:16:18.120Z,15.39
2024-05-09T14:18:50.409Z,15.62
2024-05-09T14:21:20.778Z,15.68
2024-05-09T14:23:52.355Z,15.68
2024-05-09T14:26:23.792Z,16.41
2024-05-09T14:28:55.346Z,17.06
2024-05-09T14:31:26.108Z,16.61
2024-05-09T14:33:58.050Z,16.74
2024-05-09T14:36:29.153Z,16.17
2024-05-09T14:39:00.843Z,14.69
2024-05-09T14:41:31.003Z,13.84
2024-05-09T14:44:02.730Z,12.36
2024-05-09T14:46:33.092Z,12.70
2024-05-09T14:49:05.107Z,12.04
2024-05-09T14:51:35.927Z,12.34
2024-05-09T14:54:07.701Z,12.32
2024-05-09T14:56:37.929Z,12.07
2024-05-09T14:59:09.791Z,11.71
2024-05-09T15:01:40.504Z,10.98
2024-05-09T15:04:12.338Z,11.89
2024-05-09T15:06:42.918Z,12.28
2024-05-09T15:09:14.758Z,12.56
2024-05-09T15:11:46.529Z,12.84
2024-05-09T15:14:18.110Z,12.52
2024-05-09T15:16:48.842Z,12.97
2024-05-09T15:19:20.874Z,13.30
2024-05-09T15:21:51.336Z,13.35
2024-05-09T15:24:23.165Z,13.42
2024-05-09T15:26:53.389Z,13.15
2024-05-09T15:29:26.283Z,13.32
2024-05-09T15:31:56.761Z,13.56
2024-05-09T15:34:30.370Z,13.73
2024-05-09T15:37:01.173Z,13.89
2024-05-09T15:39:33.138Z,13.53
2024-05-09T15:42:03.731Z,13.67
2024-05-09T15:44:36.057Z,14.00
2024-05-09T15:47:06.427Z,14.20
2024-05-09T15:49:38.368Z,13.83
2024-05-09T15:52:08.947Z,13.65
2024-05-09T15:54:40.794Z,14.17
2024-05-09T15:57:11.196Z,14.92
2024-05-09T15:59:42.850Z,14.97
2024-05-09T16:02:13.912Z,15.08
2024-05-09T16:04:46.079Z,15.00
2024-05-09T16:07:16.425Z,15.03
2024-05-09T16:09:48.155Z,14.57
2024-05-09T16:12:18.870Z,14.52
2024-05-09T16:14:51.152Z,15.12
2024-05-09T16:17:21.635Z,15.28
2024-05-09T16:19:53.393Z,15.54
2024-05-09T16:22:23.900Z,17.07
2024-05-09T16:24:55.785Z,17.09
2024-05-09T16:27:26.421Z,17.11
2024-05-09T16:30:03.993Z,16.85
2024-05-09T16:32:37.226Z,16.79
2024-05-09T16:35:07.589Z,16.89
2024-05-09T16:37:39.449Z,16.86
2024-05-09T16:40:21.687Z,17.24
2024-05-09T16:43:03.400Z,17.49
2024-05-09T16:45:34.298Z,17.68
2024-05-09T16:48:06.924Z,17.98
2024-05-09T16:50:37.615Z,18.78
2024-05-09T16:53:09.429Z,19.00
2024-05-09T16:55:40.063Z,18.91
2024-05-09T16:58:12.559Z,19.43
2024-05-09T17:00:44.275Z,19.87
2024-05-09T17:03:17.282Z,20.72
2024-05-09T17:05:48.706Z,21.28
2024-05-09T17:08:20.433Z,22.01
2024-05-09T17:10:51.517Z,22.58
2024-05-09T17:13:23.778Z,22.89
2024-05-09T17:15:54.501Z,22.66
2024-05-09T17:18:26.036Z,22.46
2024-05-09T17:20:57.128Z,23.19
2024-05-09T17:23:29.278Z,23.19
2024-05-09T17:26:01.352Z,23.27
2024-05-09T17:28:33.257Z,23.65
2024-05-09T17:31:03.960Z,24.19
2024-05-09T17:33:36.063Z,24.48
2024-05-09T17:36:06.746Z,24.62
2024-05-09T17:38:38.705Z,25.00
2024-05-09T17:41:09.344Z,25.32
2024-05-09T17:43:40.995Z,25.72
2024-05-09T17:46:11.646Z,26.27
2024-05-09T17:48:43.759Z,26.68
2024-05-09T17:51:14.428Z,27.13
2024-05-09T17:53:48.066Z,27.56
2024-05-09T17:56:19.076Z,28.20
2024-05-09T17:58:50.666Z,28.68
2024-05-09T18:01:21.681Z,28.91
2024-05-09T18:03:54.852Z,29.39
2024-05-09T18:06:25.589Z,30.27
2024-05-09T18:08:57.362Z,30.90
2024-05-09T18:11:28.089Z,31.20
2024-05-09T18:13:59.932Z,31.53
2024-05-09T18:16:30.389Z,31.90
2024-05-09T18:19:02.243Z,31.98
2024-05-09T18:21:33.138Z,32.37
2024-05-09T18:24:05.125Z,32.55
2024-05-09T18:26:35.225Z,32.82
2024-05-09T18:29:07.326Z,32.98
2024-05-09T18:31:37.905Z,33.29
2024-05-09T18:34:13.186Z,33.66
2024-05-09T18:36:46.807Z,33.66
2024-05-09T18:39:17.613Z,34.09
2024-05-09T18:41:49.093Z,34.22
2024-05-09T18:44:19.324Z,34.29
2024-05-09T18:46:51.773Z,34.57
2024-05-09T18:49:22.299Z,34.65
2024-05-09T18:51:53.975Z,34.84
2024-05-09T18:54:24.371Z,35.06
2024-05-09T18:56:56.336Z,35.22
2024-05-09T18:59:26.898Z,35.46
2024-05-09T19:01:58.753Z,35.90
2024-05-09T19:04:29.630Z,36.25
2024-05-09T19:07:02.684Z,36.58
2024-05-09T19:09:33.290Z,36.89
2024-05-09T19:12:06.612Z,37.23
2024-05-09T19:14:37.006Z,37.48
2024-05-09T19:17:09.442Z,37.71
2024-05-09T19:19:40.066Z,37.92
2024-05-09T19:22:11.880Z,38.42
2024-05-09T19:24:42.274Z,38.68
2024-05-09T19:27:14.046Z,39.18
2024-05-09T19:29:44.373Z,39.36
2024-05-09T19:32:15.853Z,39.65
2024-05-09T19:34:46.251Z,39.74
2024-05-09T19:37:17.971Z,40.08
2024-05-09T19:39:48.882Z,40.34
2024-05-09T19:42:20.583Z,40.46
2024-05-09T19:44:51.046Z,40.71
2024-05-09T19:47:22.860Z,41.04
2024-05-09T19:49:53.365Z,41.50
2024-05-09T19:52:24.965Z,41.64
2024-05-09T19:54:55.323Z,41.99
2024-05-09T19:57:26.752Z,42.44
2024-05-09T19:59:57.173Z,42.60
2024-05-09T20:02:29.069Z,42.85
2024-05-09T20:04:59.868Z,43.09
2024-05-09T20:07:34.272Z,43.37
2024-05-09T20:10:13.259Z,43.56
2024-05-09T20:12:48.799Z,43.72
2024-05-09T20:15:19.715Z,43.96
2024-05-09T20:17:51.804Z,44.18
2024-05-09T20:20:32.653Z,44.16
2024-05-09T20:23:10.665Z,44.33
2024-05-09T20:25:41.567Z,44.51
2024-05-09T20:28:12.997Z,44.67
2024-05-09T20:30:44.078Z,44.84
2024-05-09T20:33:15.742Z,44.89
2024-05-09T20:35:46.266Z,45.20
2024-05-09T20:38:17.824Z,45.44
2024-05-09T20:40:48.536Z,45.73
2024-05-09T20:43:20.738Z,46.19
2024-05-09T20:45:51.792Z,46.70
2024-05-09T20:48:24.753Z,46.98
2024-05-09T20:50:55.204Z,47.11
2024-05-09T20:53:27.008Z,47.07
2024-05-09T20:55:57.440Z,47.24
2024-05-09T20:58:30.170Z,47.38
2024-05-09T21:01:00.937Z,47.55
2024-05-09T21:03:33.407Z,48.09
2024-05-09T21:06:04.086Z,48.42
2024-05-09T21:08:36.248Z,48.92
2024-05-09T21:11:06.979Z,49.26
2024-05-09T21:13:38.479Z,49.48
2024-05-09T21:16:09.355Z,49.67
2024-05-09T21:18:41.304Z,50.07
2024-05-09T21:21:11.815Z,50.16
2024-05-09T21:23:43.516Z,50.57
2024-05-09T21:26:14.662Z,50.99
2024-05-09T21:28:46.134Z,51.39
2024-05-09T21:31:16.824Z,51.37
2024-05-09T21:33:48.616Z,51.45
2024-05-09T21:36:18.752Z,51.41
2024-05-09T21:38:50.675Z,51.56
2024-05-09T21:41:21.405Z,52.18
2024-05-09T21:43:53.057Z,52.58
2024-05-09T21:46:24.240Z,53.21
2024-05-09T21:48:56.024Z,53.58
2024-05-09T21:51:26.370Z,53.60
2024-05-09T21:53:58.858Z,53.69
2024-05-09T21:56:29.083Z,53.44
2024-05-09T21:59:01.721Z,53.14
2024-05-09T22:01:34.072Z,53.53
2024-05-09T22:04:06.080Z,53.82
2024-05-09T22:06:36.776Z,53.74
2024-05-09T22:09:08.569Z,53.81
2024-05-09T22:11:39.604Z,53.89
2024-05-09T22:14:11.665Z,54.39
2024-05-09T22:16:42.226Z,54.61
2024-05-09T22:19:13.954Z,55.01
2024-05-09T22:21:44.360Z,55.12
2024-05-09T22:24:16.238Z,55.28
2024-05-09T22:26:46.591Z,55.68
2024-05-09T22:29:18.327Z,55.90
2024-05-09T22:31:48.672Z,55.80
2024-05-09T22:34:20.569Z,55.81
2024-05-09T22:36:51.239Z,55.94
2024-05-09T22:39:26.104Z,56.37
2024-05-09T22:41:58.745Z,56.52
2024-05-09T22:44:29.207Z,56.51
2024-05-09T22:47:01.104Z,56.66
2024-05-09T22:49:31.458Z,56.85
2024-05-09T22:52:02.956Z,57.36
2024-05-09T22:54:33.414Z,57.64
2024-05-09T22:57:05.553Z,57.79
2024-05-09T22:59:36.082Z,58.13
2024-05-09T23:02:07.746Z,58.48
2024-05-09T23:04:38.800Z,59.36
2024-05-09T23:07:10.768Z,60.27
2024-05-09T23:09:41.072Z,61.59
2024-05-09T23:12:17.619Z,63.69
2024-05-09T23:14:49.079Z,63.38
2024-05-09T23:17:19.578Z,63.08
2024-05-09T23:19:51.159Z,62.98
2024-05-09T23:22:22.024Z,63.09
2024-05-09T23:24:53.777Z,63.62
2024-05-09T23:27:24.067Z,63.94
2024-05-09T23:29:56.034Z,64.13
2024-05-09T23:32:26.336Z,64.11
2024-05-09T23:34:58.262Z,64.77
2024-05-09T23:37:29.233Z,64.41
2024-05-09T23:40:00.990Z,64.05
2024-05-09T23:42:31.334Z,63.99
2024-05-09T23:45:03.689Z,63.86
2024-05-09T23:47:34.968Z,63.62
2024-05-09T23:50:13.756Z,63.30
2024-05-09T23:52:48.377Z,63.31
2024-05-09T23:55:21.493Z,63.36
2024-05-09T23:57:53.071Z,63.23
